sensor_id;sensor_type;location;lat;lon;timestamp;P1;durP1;ratioP1;P2;durP2;ratioP2
2041;SDS011;1026;51.460;7.252;2022-08-19T00:00:35;4.57;;;4.27;;
2041;SDS011;1026;51.460;7.252;2022-08-19T00:03:02;4.50;;;4.20;;
2041;SDS011;1026;51.460;7.252;2022-08-19T00:05:29;4.93;;;4.53;;
2041;SDS011;1026;51.460;7.252;2022-08-19T00:07:55;5.50;;;5.10;;
2041;SDS011;1026;51.460;7.252;2022-08-19T00:10:21;4.77;;;4.37;;
2041;SDS011;1026;51.460;7.252;2022-08-19T00:12:47;5.70;;;4.27;;
2041;SDS011;1026;51.460;7.252;2022-08-19T00:15:14;5.40;;;5.00;;
2041;SDS011;1026;51.460;7.252;2022-08-19T00:17:42;5.47;;;5.00;;
2041;SDS011;1026;51.460;7.252;2022-08-19T00:20:10;4.80;;;4.40;;
2041;SDS011;1026;51.460;7.252;2022-08-19T00:22:38;4.70;;;4.40;;
2041;SDS011;1026;51.460;7.252;2022-08-19T00:25:06;4.73;;;4.33;;
2041;SDS011;1026;51.460;7.252;2022-08-19T00:27:32;5.13;;;4.63;;
2041;SDS011;1026;51.460;7.252;2022-08-19T00:29:58;4.67;;;4.27;;
2041;SDS011;1026;51.460;7.252;2022-08-19T00:32:24;4.87;;;4.47;;
2041;SDS011;1026;51.460;7.252;2022-08-19T00:34:50;4.93;;;4.53;;
2041;SDS011;1026;51.460;7.252;2022-08-19T00:37:17;4.47;;;4.17;;
2041;SDS011;1026;51.460;7.252;2022-08-19T00:39:44;5.03;;;4.63;;
2041;SDS011;1026;51.460;7.252;2022-08-19T00:42:10;4.73;;;4.33;;
2041;SDS011;1026;51.460;7.252;2022-08-19T00:44:36;4.67;;;4.27;;
2041;SDS011;1026;51.460;7.252;2022-08-19T00:47:03;4.73;;;4.33;;
2041;SDS011;1026;51.460;7.252;2022-08-19T00:49:37;4.97;;;4.57;;
2041;SDS011;1026;51.460;7.252;2022-08-19T00:52:12;4.20;;;3.90;;
2041;SDS011;1026;51.460;7.252;2022-08-19T00:54:41;4.57;;;4.27;;
2041;SDS011;1026;51.460;7.252;2022-08-19T00:57:09;4.10;;;3.60;;
2041;SDS011;1026;51.460;7.252;2022-08-19T00:59:40;5.13;;;4.80;;
2041;SDS011;1026;51.460;7.252;2022-08-19T01:02:10;3.80;;;3.50;;
2041;SDS011;1026;51.460;7.252;2022-08-19T01:04:37;5.03;;;4.53;;
2041;SDS011;1026;51.460;7.252;2022-08-19T01:07:02;5.00;;;4.50;;
2041;SDS011;1026;51.460;7.252;2022-08-19T01:09:29;4.93;;;4.53;;
2041;SDS011;1026;51.460;7.252;2022-08-19T01:11:54;4.37;;;4.07;;
2041;SDS011;1026;51.460;7.252;2022-08-19T01:14:21;4.70;;;4.33;;
2041;SDS011;1026;51.460;7.252;2022-08-19T01:16:47;5.23;;;4.73;;
2041;SDS011;1026;51.460;7.252;2022-08-19T01:19:24;4.67;;;4.27;;
2041;SDS011;1026;51.460;7.252;2022-08-19T01:21:55;3.97;;;3.67;;
2041;SDS011;1026;51.460;7.252;2022-08-19T01:24:26;4.20;;;3.90;;
2041;SDS011;1026;51.460;7.252;2022-08-19T01:26:52;4.70;;;4.40;;
2041;SDS011;1026;51.460;7.252;2022-08-19T01:29:18;3.90;;;3.60;;
2041;SDS011;1026;51.460;7.252;2022-08-19T01:31:51;4.10;;;3.80;;
2041;SDS011;1026;51.460;7.252;2022-08-19T01:34:18;3.83;;;3.53;;
2041;SDS011;1026;51.460;7.252;2022-08-19T01:36:45;4.37;;;4.07;;
2041;SDS011;1026;51.460;7.252;2022-08-19T01:39:14;4.77;;;4.40;;
2041;SDS011;1026;51.460;7.252;2022-08-19T01:41:42;4.10;;;3.80;;
2041;SDS011;1026;51.460;7.252;2022-08-19T01:44:08;4.90;;;4.50;;
2041;SDS011;1026;51.460;7.252;2022-08-19T01:46:35;4.70;;;4.30;;
2041;SDS011;1026;51.460;7.252;2022-08-19T01:49:01;4.77;;;4.37;;
2041;SDS011;1026;51.460;7.252;2022-08-19T01:51:28;4.40;;;4.10;;
2041;SDS011;1026;51.460;7.252;2022-08-19T01:53:55;4.20;;;3.90;;
2041;SDS011;1026;51.460;7.252;2022-08-19T01:56:22;4.50;;;4.20;;
2041;SDS011;1026;51.460;7.252;2022-08-19T01:58:53;4.87;;;4.47;;
2041;SDS011;1026;51.460;7.252;2022-08-19T02:01:22;4.10;;;3.80;;
2041;SDS011;1026;51.460;7.252;2022-08-19T02:03:49;4.27;;;3.97;;
2041;SDS011;1026;51.460;7.252;2022-08-19T02:06:15;4.60;;;4.20;;
2041;SDS011;1026;51.460;7.252;2022-08-19T02:08:42;4.77;;;4.37;;
2041;SDS011;1026;51.460;7.252;2022-08-19T02:11:17;4.10;;;3.80;;
2041;SDS011;1026;51.460;7.252;2022-08-19T02:13:44;4.90;;;4.43;;
2041;SDS011;1026;51.460;7.252;2022-08-19T02:16:10;3.90;;;3.60;;
2041;SDS011;1026;51.460;7.252;2022-08-19T02:18:35;4.00;;;3.70;;
2041;SDS011;1026;51.460;7.252;2022-08-19T02:21:01;4.23;;;3.93;;
2041;SDS011;1026;51.460;7.252;2022-08-19T02:23:27;3.77;;;3.57;;
2041;SDS011;1026;51.460;7.252;2022-08-19T02:25:52;4.30;;;4.00;;
2041;SDS011;1026;51.460;7.252;2022-08-19T02:28:18;4.47;;;4.17;;
2041;SDS011;1026;51.460;7.252;2022-08-19T02:30:44;4.63;;;4.33;;
2041;SDS011;1026;51.460;7.252;2022-08-19T02:33:11;4.63;;;4.23;;
2041;SDS011;1026;51.460;7.252;2022-08-19T02:35:36;5.20;;;4.80;;
2041;SDS011;1026;51.460;7.252;2022-08-19T02:38:05;5.37;;;4.87;;
2041;SDS011;1026;51.460;7.252;2022-08-19T02:40:48;5.03;;;4.57;;
2041;SDS011;1026;51.460;7.252;2022-08-19T02:43:17;6.20;;;5.10;;
2041;SDS011;1026;51.460;7.252;2022-08-19T02:45:43;4.80;;;4.27;;
2041;SDS011;1026;51.460;7.252;2022-08-19T02:48:08;4.57;;;4.20;;
2041;SDS011;1026;51.460;7.252;2022-08-19T02:50:38;5.23;;;4.73;;
2041;SDS011;1026;51.460;7.252;2022-08-19T02:53:04;4.87;;;4.57;;
2041;SDS011;1026;51.460;7.252;2022-08-19T02:55:31;4.87;;;4.53;;
2041;SDS011;1026;51.460;7.252;2022-08-19T02:57:56;5.03;;;4.63;;
2041;SDS011;1026;51.460;7.252;2022-08-19T03:00:22;4.20;;;3.90;;
2041;SDS011;1026;51.460;7.252;2022-08-19T03:02:49;4.53;;;4.23;;
2041;SDS011;1026;51.460;7.252;2022-08-19T03:05:15;4.97;;;4.53;;
2041;SDS011;1026;51.460;7.252;2022-08-19T03:07:41;4.43;;;4.10;;
2041;SDS011;1026;51.460;7.252;2022-08-19T03:10:06;5.27;;;4.80;;
2041;SDS011;1026;51.460;7.252;2022-08-19T03:12:35;4.87;;;4.47;;
2041;SDS011;1026;51.460;7.252;2022-08-19T03:15:02;4.70;;;4.30;;
2041;SDS011;1026;51.460;7.252;2022-08-19T03:17:32;5.03;;;4.63;;
2041;SDS011;1026;51.460;7.252;2022-08-19T03:19:58;4.63;;;4.33;;
2041;SDS011;1026;51.460;7.252;2022-08-19T03:22:24;4.73;;;4.33;;
2041;SDS011;1026;51.460;7.252;2022-08-19T03:24:50;4.67;;;4.27;;
2041;SDS011;1026;51.460;7.252;2022-08-19T03:27:16;4.60;;;4.20;;
2041;SDS011;1026;51.460;7.252;2022-08-19T03:29:42;4.27;;;3.97;;
2041;SDS011;1026;51.460;7.252;2022-08-19T03:32:08;4.00;;;3.70;;
2041;SDS011;1026;51.460;7.252;2022-08-19T03:34:36;4.70;;;4.40;;
2041;SDS011;1026;51.460;7.252;2022-08-19T03:37:04;4.27;;;3.97;;
2041;SDS011;1026;51.460;7.252;2022-08-19T03:39:32;4.10;;;3.80;;
2041;SDS011;1026;51.460;7.252;2022-08-19T03:42:00;4.40;;;4.07;;
2041;SDS011;1026;51.460;7.252;2022-08-19T03:44:27;4.27;;;3.97;;
2041;SDS011;1026;51.460;7.252;2022-08-19T03:46:55;6.23;;;4.30;;
2041;SDS011;1026;51.460;7.252;2022-08-19T03:49:24;5.57;;;5.07;;
2041;SDS011;1026;51.460;7.252;2022-08-19T03:51:52;4.67;;;4.37;;
2041;SDS011;1026;51.460;7.252;2022-08-19T03:54:20;4.80;;;4.50;;
2041;SDS011;1026;51.460;7.252;2022-08-19T03:56:48;4.10;;;3.80;;
2041;SDS011;1026;51.460;7.252;2022-08-19T03:59:17;3.73;;;3.43;;
2041;SDS011;1026;51.460;7.252;2022-08-19T04:01:48;5.00;;;4.60;;
2041;SDS011;1026;51.460;7.252;2022-08-19T04:04:13;4.10;;;3.87;;
2041;SDS011;1026;51.460;7.252;2022-08-19T04:06:39;4.50;;;4.20;;
2041;SDS011;1026;51.460;7.252;2022-08-19T04:09:06;4.53;;;4.23;;
2041;SDS011;1026;51.460;7.252;2022-08-19T04:11:35;4.40;;;4.10;;
2041;SDS011;1026;51.460;7.252;2022-08-19T04:14:05;4.40;;;4.10;;
2041;SDS011;1026;51.460;7.252;2022-08-19T04:16:33;4.33;;;4.03;;
2041;SDS011;1026;51.460;7.252;2022-08-19T04:19:00;4.37;;;4.07;;
2041;SDS011;1026;51.460;7.252;2022-08-19T04:21:27;4.77;;;4.47;;
2041;SDS011;1026;51.460;7.252;2022-08-19T04:23:54;4.63;;;4.33;;
2041;SDS011;1026;51.460;7.252;2022-08-19T04:26:22;5.30;;;4.83;;
2041;SDS011;1026;51.460;7.252;2022-08-19T04:28:49;4.20;;;4.00;;
2041;SDS011;1026;51.460;7.252;2022-08-19T04:31:19;4.30;;;4.00;;
2041;SDS011;1026;51.460;7.252;2022-08-19T04:33:47;5.10;;;4.20;;
2041;SDS011;1026;51.460;7.252;2022-08-19T04:36:21;4.97;;;4.50;;
2041;SDS011;1026;51.460;7.252;2022-08-19T04:38:53;4.50;;;4.20;;
2041;SDS011;1026;51.460;7.252;2022-08-19T04:41:20;5.00;;;4.60;;
2041;SDS011;1026;51.460;7.252;2022-08-19T04:44:01;4.40;;;4.10;;
2041;SDS011;1026;51.460;7.252;2022-08-19T04:46:28;4.47;;;4.17;;
2041;SDS011;1026;51.460;7.252;2022-08-19T04:48:57;4.60;;;4.30;;
2041;SDS011;1026;51.460;7.252;2022-08-19T04:51:24;4.83;;;4.43;;
2041;SDS011;1026;51.460;7.252;2022-08-19T04:53:49;5.17;;;4.77;;
2041;SDS011;1026;51.460;7.252;2022-08-19T04:56:17;5.50;;;5.00;;
2041;SDS011;1026;51.460;7.252;2022-08-19T04:58:48;4.67;;;4.33;;
2041;SDS011;1026;51.460;7.252;2022-08-19T05:01:19;5.30;;;4.90;;
2041;SDS011;1026;51.460;7.252;2022-08-19T05:03:47;4.60;;;4.30;;
2041;SDS011;1026;51.460;7.252;2022-08-19T05:06:13;4.20;;;3.90;;
2041;SDS011;1026;51.460;7.252;2022-08-19T05:08:41;4.63;;;4.33;;
2041;SDS011;1026;51.460;7.252;2022-08-19T05:11:16;4.63;;;4.23;;
2041;SDS011;1026;51.460;7.252;2022-08-19T05:13:46;4.30;;;4.00;;
2041;SDS011;1026;51.460;7.252;2022-08-19T05:16:14;4.17;;;3.77;;
2041;SDS011;1026;51.460;7.252;2022-08-19T05:18:42;4.27;;;3.97;;
2041;SDS011;1026;51.460;7.252;2022-08-19T05:21:23;5.10;;;4.70;;
2041;SDS011;1026;51.460;7.252;2022-08-19T05:24:05;6.33;;;4.53;;
2041;SDS011;1026;51.460;7.252;2022-08-19T05:26:35;4.83;;;4.43;;
2041;SDS011;1026;51.460;7.252;2022-08-19T05:29:03;4.73;;;4.33;;
2041;SDS011;1026;51.460;7.252;2022-08-19T05:31:30;5.20;;;4.70;;
2041;SDS011;1026;51.460;7.252;2022-08-19T05:33:56;4.90;;;4.50;;
2041;SDS011;1026;51.460;7.252;2022-08-19T05:36:24;4.60;;;4.30;;
2041;SDS011;1026;51.460;7.252;2022-08-19T05:38:50;6.17;;;4.47;;
2041;SDS011;1026;51.460;7.252;2022-08-19T05:41:18;4.00;;;3.70;;
2041;SDS011;1026;51.460;7.252;2022-08-19T05:43:44;4.27;;;3.87;;
2041;SDS011;1026;51.460;7.252;2022-08-19T05:46:15;4.50;;;4.20;;
2041;SDS011;1026;51.460;7.252;2022-08-19T05:48:43;4.80;;;4.33;;
2041;SDS011;1026;51.460;7.252;2022-08-19T05:51:09;4.77;;;4.37;;
2041;SDS011;1026;51.460;7.252;2022-08-19T05:53:35;4.93;;;4.50;;
2041;SDS011;1026;51.460;7.252;2022-08-19T05:56:05;4.53;;;4.13;;
2041;SDS011;1026;51.460;7.252;2022-08-19T05:58:33;5.03;;;4.63;;
2041;SDS011;1026;51.460;7.252;2022-08-19T06:00:59;4.33;;;4.03;;
2041;SDS011;1026;51.460;7.252;2022-08-19T06:03:32;5.57;;;5.17;;
2041;SDS011;1026;51.460;7.252;2022-08-19T06:05:58;5.70;;;5.20;;
2041;SDS011;1026;51.460;7.252;2022-08-19T06:08:25;4.90;;;4.50;;
2041;SDS011;1026;51.460;7.252;2022-08-19T06:10:51;5.50;;;5.10;;
2041;SDS011;1026;51.460;7.252;2022-08-19T06:13:18;5.70;;;5.30;;
2041;SDS011;1026;51.460;7.252;2022-08-19T06:15:44;5.37;;;4.97;;
2041;SDS011;1026;51.460;7.252;2022-08-19T06:18:12;4.67;;;4.27;;
2041;SDS011;1026;51.460;7.252;2022-08-19T06:20:38;5.20;;;4.80;;
2041;SDS011;1026;51.460;7.252;2022-08-19T06:23:05;4.93;;;4.53;;
2041;SDS011;1026;51.460;7.252;2022-08-19T06:25:31;4.83;;;4.43;;
2041;SDS011;1026;51.460;7.252;2022-08-19T06:27:57;5.50;;;5.03;;
2041;SDS011;1026;51.460;7.252;2022-08-19T06:30:23;10.73;;;9.73;;
2041;SDS011;1026;51.460;7.252;2022-08-19T06:32:48;8.43;;;7.63;;
2041;SDS011;1026;51.460;7.252;2022-08-19T06:35:14;4.60;;;4.20;;
2041;SDS011;1026;51.460;7.252;2022-08-19T06:37:40;9.20;;;8.17;;
2041;SDS011;1026;51.460;7.252;2022-08-19T06:40:06;5.13;;;4.60;;
2041;SDS011;1026;51.460;7.252;2022-08-19T06:42:34;5.10;;;4.70;;
2041;SDS011;1026;51.460;7.252;2022-08-19T06:45:00;6.10;;;5.60;;
2041;SDS011;1026;51.460;7.252;2022-08-19T06:47:28;15.23;;;13.67;;
2041;SDS011;1026;51.460;7.252;2022-08-19T06:49:56;12.77;;;9.90;;
2041;SDS011;1026;51.460;7.252;2022-08-19T06:52:27;14.63;;;12.87;;
2041;SDS011;1026;51.460;7.252;2022-08-19T06:54:54;16.20;;;13.83;;
2041;SDS011;1026;51.460;7.252;2022-08-19T06:57:21;10.17;;;9.27;;
2041;SDS011;1026;51.460;7.252;2022-08-19T06:59:47;15.60;;;11.50;;
2041;SDS011;1026;51.460;7.252;2022-08-19T07:02:12;13.80;;;12.17;;
2041;SDS011;1026;51.460;7.252;2022-08-19T07:04:38;8.57;;;7.90;;
2041;SDS011;1026;51.460;7.252;2022-08-19T07:07:05;6.20;;;5.70;;
2041;SDS011;1026;51.460;7.252;2022-08-19T07:09:35;18.60;;;16.17;;
2041;SDS011;1026;51.460;7.252;2022-08-19T07:12:03;15.65;;;13.88;;
2041;SDS011;1026;51.460;7.252;2022-08-19T07:14:31;17.80;;;15.50;;
2041;SDS011;1026;51.460;7.252;2022-08-19T07:17:02;18.30;;;13.83;;
2041;SDS011;1026;51.460;7.252;2022-08-19T07:19:29;25.80;;;17.47;;
2041;SDS011;1026;51.460;7.252;2022-08-19T07:21:58;16.60;;;14.13;;
2041;SDS011;1026;51.460;7.252;2022-08-19T07:24:28;17.83;;;16.00;;
2041;SDS011;1026;51.460;7.252;2022-08-19T07:26:55;16.00;;;12.17;;
2041;SDS011;1026;51.460;7.252;2022-08-19T07:29:25;18.40;;;14.23;;
2041;SDS011;1026;51.460;7.252;2022-08-19T07:31:52;8.00;;;7.30;;
2041;SDS011;1026;51.460;7.252;2022-08-19T07:34:21;11.17;;;10.07;;
2041;SDS011;1026;51.460;7.252;2022-08-19T07:36:48;14.33;;;12.13;;
2041;SDS011;1026;51.460;7.252;2022-08-19T07:39:16;20.17;;;14.80;;
2041;SDS011;1026;51.460;7.252;2022-08-19T07:41:43;15.53;;;13.93;;
2041;SDS011;1026;51.460;7.252;2022-08-19T07:44:10;18.40;;;13.80;;
2041;SDS011;1026;51.460;7.252;2022-08-19T07:46:39;15.60;;;13.93;;
2041;SDS011;1026;51.460;7.252;2022-08-19T07:49:06;21.10;;;14.13;;
2041;SDS011;1026;51.460;7.252;2022-08-19T07:51:45;12.93;;;10.90;;
2041;SDS011;1026;51.460;7.252;2022-08-19T07:54:12;13.30;;;11.90;;
2041;SDS011;1026;51.460;7.252;2022-08-19T07:56:38;15.20;;;13.57;;
2041;SDS011;1026;51.460;7.252;2022-08-19T07:59:04;16.07;;;11.57;;
2041;SDS011;1026;51.460;7.252;2022-08-19T08:01:30;14.60;;;10.13;;
2041;SDS011;1026;51.460;7.252;2022-08-19T08:03:57;13.77;;;11.10;;
2041;SDS011;1026;51.460;7.252;2022-08-19T08:06:38;12.13;;;10.07;;
2041;SDS011;1026;51.460;7.252;2022-08-19T08:09:21;13.80;;;12.40;;
2041;SDS011;1026;51.460;7.252;2022-08-19T08:11:56;16.90;;;12.60;;
2041;SDS011;1026;51.460;7.252;2022-08-19T08:14:28;13.40;;;12.00;;
2041;SDS011;1026;51.460;7.252;2022-08-19T08:16:56;14.23;;;12.73;;
2041;SDS011;1026;51.460;7.252;2022-08-19T08:19:22;15.23;;;13.20;;
2041;SDS011;1026;51.460;7.252;2022-08-19T08:21:51;17.30;;;14.53;;
2041;SDS011;1026;51.460;7.252;2022-08-19T08:24:18;14.70;;;12.90;;
2041;SDS011;1026;51.460;7.252;2022-08-19T08:26:45;14.43;;;12.03;;
2041;SDS011;1026;51.460;7.252;2022-08-19T08:29:11;18.47;;;15.80;;
2041;SDS011;1026;51.460;7.252;2022-08-19T08:31:38;19.63;;;16.70;;
2041;SDS011;1026;51.460;7.252;2022-08-19T08:34:05;20.03;;;16.07;;
2041;SDS011;1026;51.460;7.252;2022-08-19T08:36:31;10.87;;;9.37;;
2041;SDS011;1026;51.460;7.252;2022-08-19T08:38:58;23.03;;;18.73;;
2041;SDS011;1026;51.460;7.252;2022-08-19T08:44:02;19.80;;;16.17;;
2041;SDS011;1026;51.460;7.252;2022-08-19T08:46:34;11.90;;;10.70;;
2041;SDS011;1026;51.460;7.252;2022-08-19T08:51:48;17.43;;;12.50;;
2041;SDS011;1026;51.460;7.252;2022-08-19T08:54:20;13.70;;;11.33;;
2041;SDS011;1026;51.460;7.252;2022-08-19T08:56:47;20.63;;;18.23;;
2041;SDS011;1026;51.460;7.252;2022-08-19T09:01:47;22.93;;;20.03;;
2041;SDS011;1026;51.460;7.252;2022-08-19T09:04:13;21.23;;;16.90;;
2041;SDS011;1026;51.460;7.252;2022-08-19T09:06:51;24.50;;;20.13;;
2041;SDS011;1026;51.460;7.252;2022-08-19T09:12:12;11.63;;;10.10;;
2041;SDS011;1026;51.460;7.252;2022-08-19T09:14:58;24.37;;;19.43;;
2041;SDS011;1026;51.460;7.252;2022-08-19T09:17:29;28.43;;;21.97;;
2041;SDS011;1026;51.460;7.252;2022-08-19T09:20:02;25.63;;;20.40;;
2041;SDS011;1026;51.460;7.252;2022-08-19T09:22:33;28.70;;;23.10;;
2041;SDS011;1026;51.460;7.252;2022-08-19T09:25:00;24.30;;;21.50;;
2041;SDS011;1026;51.460;7.252;2022-08-19T09:27:26;27.80;;;21.40;;
2041;SDS011;1026;51.460;7.252;2022-08-19T09:29:53;27.97;;;24.33;;
2041;SDS011;1026;51.460;7.252;2022-08-19T09:32:19;26.37;;;23.60;;
2041;SDS011;1026;51.460;7.252;2022-08-19T09:34:46;31.70;;;24.60;;
2041;SDS011;1026;51.460;7.252;2022-08-19T09:37:11;31.60;;;27.10;;
2041;SDS011;1026;51.460;7.252;2022-08-19T09:39:38;34.97;;;29.73;;
2041;SDS011;1026;51.460;7.252;2022-08-19T09:42:05;34.00;;;27.53;;
2041;SDS011;1026;51.460;7.252;2022-08-19T09:44:37;31.83;;;28.43;;
2041;SDS011;1026;51.460;7.252;2022-08-19T09:47:03;28.23;;;24.90;;
2041;SDS011;1026;51.460;7.252;2022-08-19T09:49:29;28.50;;;23.73;;
2041;SDS011;1026;51.460;7.252;2022-08-19T09:51:56;26.03;;;21.50;;
2041;SDS011;1026;51.460;7.252;2022-08-19T09:54:22;34.70;;;25.60;;
2041;SDS011;1026;51.460;7.252;2022-08-19T09:56:49;32.20;;;27.00;;
2041;SDS011;1026;51.460;7.252;2022-08-19T09:59:15;33.70;;;27.27;;
2041;SDS011;1026;51.460;7.252;2022-08-19T10:01:40;28.90;;;24.27;;
2041;SDS011;1026;51.460;7.252;2022-08-19T10:04:06;29.43;;;26.37;;
2041;SDS011;1026;51.460;7.252;2022-08-19T10:06:34;29.47;;;26.30;;
2041;SDS011;1026;51.460;7.252;2022-08-19T10:09:02;26.33;;;22.70;;
2041;SDS011;1026;51.460;7.252;2022-08-19T10:11:31;25.67;;;22.07;;
2041;SDS011;1026;51.460;7.252;2022-08-19T10:13:57;24.53;;;21.37;;
2041;SDS011;1026;51.460;7.252;2022-08-19T10:16:24;22.50;;;19.70;;
2041;SDS011;1026;51.460;7.252;2022-08-19T10:18:50;20.90;;;18.60;;
2041;SDS011;1026;51.460;7.252;2022-08-19T10:23:53;21.83;;;17.50;;
2041;SDS011;1026;51.460;7.252;2022-08-19T10:26:24;20.30;;;16.85;;
2041;SDS011;1026;51.460;7.252;2022-08-19T10:28:51;21.43;;;19.20;;
2041;SDS011;1026;51.460;7.252;2022-08-19T10:31:20;21.50;;;19.30;;
2041;SDS011;1026;51.460;7.252;2022-08-19T10:33:48;21.60;;;17.67;;
2041;SDS011;1026;51.460;7.252;2022-08-19T10:36:17;17.47;;;15.70;;
2041;SDS011;1026;51.460;7.252;2022-08-19T10:38:45;18.03;;;16.17;;
2041;SDS011;1026;51.460;7.252;2022-08-19T10:41:15;18.30;;;15.13;;
2041;SDS011;1026;51.460;7.252;2022-08-19T10:43:43;17.47;;;15.83;;
2041;SDS011;1026;51.460;7.252;2022-08-19T10:46:11;18.60;;;14.33;;
2041;SDS011;1026;51.460;7.252;2022-08-19T10:48:38;19.77;;;16.87;;
2041;SDS011;1026;51.460;7.252;2022-08-19T10:51:04;16.40;;;14.70;;
2041;SDS011;1026;51.460;7.252;2022-08-19T10:53:46;16.70;;;15.03;;
2041;SDS011;1026;51.460;7.252;2022-08-19T10:56:11;19.37;;;17.37;;
2041;SDS011;1026;51.460;7.252;2022-08-19T10:58:53;18.37;;;16.57;;
2041;SDS011;1026;51.460;7.252;2022-08-19T11:01:18;18.13;;;16.20;;
2041;SDS011;1026;51.460;7.252;2022-08-19T11:03:44;16.47;;;15.00;;
2041;SDS011;1026;51.460;7.252;2022-08-19T11:06:10;18.70;;;16.77;;
2041;SDS011;1026;51.460;7.252;2022-08-19T11:08:36;18.40;;;16.23;;
2041;SDS011;1026;51.460;7.252;2022-08-19T11:11:03;15.30;;;13.90;;
2041;SDS011;1026;51.460;7.252;2022-08-19T11:13:30;17.23;;;14.23;;
2041;SDS011;1026;51.460;7.252;2022-08-19T11:16:00;24.17;;;21.90;;
2041;SDS011;1026;51.460;7.252;2022-08-19T11:18:31;21.63;;;18.63;;
2041;SDS011;1026;51.460;7.252;2022-08-19T11:23:39;23.80;;;21.50;;
2041;SDS011;1026;51.460;7.252;2022-08-19T11:26:05;21.23;;;17.07;;
2041;SDS011;1026;51.460;7.252;2022-08-19T11:28:31;19.40;;;17.60;;
2041;SDS011;1026;51.460;7.252;2022-08-19T11:30:57;18.13;;;16.47;;
2041;SDS011;1026;51.460;7.252;2022-08-19T11:33:22;23.10;;;21.00;;
2041;SDS011;1026;51.460;7.252;2022-08-19T11:35:50;18.13;;;16.23;;
2041;SDS011;1026;51.460;7.252;2022-08-19T11:38:15;18.10;;;16.40;;
2041;SDS011;1026;51.460;7.252;2022-08-19T11:40:41;19.07;;;17.17;;
2041;SDS011;1026;51.460;7.252;2022-08-19T11:43:07;19.27;;;17.53;;
2041;SDS011;1026;51.460;7.252;2022-08-19T11:45:33;17.10;;;15.50;;
2041;SDS011;1026;51.460;7.252;2022-08-19T11:47:59;20.07;;;18.07;;
2041;SDS011;1026;51.460;7.252;2022-08-19T11:50:24;15.80;;;14.30;;
2041;SDS011;1026;51.460;7.252;2022-08-19T11:52:53;18.73;;;14.97;;
2041;SDS011;1026;51.460;7.252;2022-08-19T11:55:20;18.30;;;16.60;;
2041;SDS011;1026;51.460;7.252;2022-08-19T11:57:46;19.80;;;17.70;;
2041;SDS011;1026;51.460;7.252;2022-08-19T12:00:12;17.17;;;15.50;;
2041;SDS011;1026;51.460;7.252;2022-08-19T12:02:38;19.47;;;17.63;;
2041;SDS011;1026;51.460;7.252;2022-08-19T12:05:05;21.27;;;18.70;;
2041;SDS011;1026;51.460;7.252;2022-08-19T12:07:31;18.50;;;16.70;;
2041;SDS011;1026;51.460;7.252;2022-08-19T12:09:58;18.47;;;16.57;;
2041;SDS011;1026;51.460;7.252;2022-08-19T12:12:25;16.63;;;14.93;;
2041;SDS011;1026;51.460;7.252;2022-08-19T12:14:51;19.20;;;17.30;;
2041;SDS011;1026;51.460;7.252;2022-08-19T12:17:22;16.17;;;14.47;;
2041;SDS011;1026;51.460;7.252;2022-08-19T12:19:48;16.80;;;15.20;;
2041;SDS011;1026;51.460;7.252;2022-08-19T12:22:14;14.27;;;12.77;;
2041;SDS011;1026;51.460;7.252;2022-08-19T12:24:40;14.10;;;12.77;;
2041;SDS011;1026;51.460;7.252;2022-08-19T12:27:06;14.40;;;12.90;;
2041;SDS011;1026;51.460;7.252;2022-08-19T12:29:31;14.17;;;12.47;;
2041;SDS011;1026;51.460;7.252;2022-08-19T12:31:58;14.37;;;12.97;;
2041;SDS011;1026;51.460;7.252;2022-08-19T12:34:28;14.93;;;13.70;;
2041;SDS011;1026;51.460;7.252;2022-08-19T12:36:56;12.07;;;10.97;;
2041;SDS011;1026;51.460;7.252;2022-08-19T12:39:22;13.40;;;11.43;;
2041;SDS011;1026;51.460;7.252;2022-08-19T12:41:48;12.73;;;11.63;;
2041;SDS011;1026;51.460;7.252;2022-08-19T12:44:14;11.57;;;10.57;;
2041;SDS011;1026;51.460;7.252;2022-08-19T12:46:40;11.37;;;10.37;;
2041;SDS011;1026;51.460;7.252;2022-08-19T12:49:05;10.20;;;9.30;;
2041;SDS011;1026;51.460;7.252;2022-08-19T12:51:31;12.63;;;11.52;;
2041;SDS011;1026;51.460;7.252;2022-08-19T12:53:57;10.70;;;9.80;;
2041;SDS011;1026;51.460;7.252;2022-08-19T12:56:22;11.27;;;10.17;;
2041;SDS011;1026;51.460;7.252;2022-08-19T12:58:48;13.93;;;12.53;;
2041;SDS011;1026;51.460;7.252;2022-08-19T13:01:15;10.00;;;9.10;;
2041;SDS011;1026;51.460;7.252;2022-08-19T13:03:42;8.57;;;7.97;;
2041;SDS011;1026;51.460;7.252;2022-08-19T13:06:09;10.57;;;9.53;;
2041;SDS011;1026;51.460;7.252;2022-08-19T13:08:35;9.90;;;9.10;;
2041;SDS011;1026;51.460;7.252;2022-08-19T13:11:07;8.97;;;8.00;;
2041;SDS011;1026;51.460;7.252;2022-08-19T13:13:36;11.40;;;10.30;;
2041;SDS011;1026;51.460;7.252;2022-08-19T13:16:06;8.70;;;8.00;;
2041;SDS011;1026;51.460;7.252;2022-08-19T13:18:32;9.37;;;8.57;;
2041;SDS011;1026;51.460;7.252;2022-08-19T13:21:02;9.30;;;8.50;;
2041;SDS011;1026;51.460;7.252;2022-08-19T13:23:29;8.87;;;8.00;;
2041;SDS011;1026;51.460;7.252;2022-08-19T13:25:56;8.33;;;7.63;;
2041;SDS011;1026;51.460;7.252;2022-08-19T13:28:23;8.27;;;7.67;;
2041;SDS011;1026;51.460;7.252;2022-08-19T13:30:48;8.57;;;7.87;;
2041;SDS011;1026;51.460;7.252;2022-08-19T13:33:29;8.73;;;8.03;;
2041;SDS011;1026;51.460;7.252;2022-08-19T13:35:57;8.03;;;7.43;;
2041;SDS011;1026;51.460;7.252;2022-08-19T13:38:25;9.67;;;8.77;;
2041;SDS011;1026;51.460;7.252;2022-08-19T13:40:52;8.70;;;8.00;;
2041;SDS011;1026;51.460;7.252;2022-08-19T13:43:20;8.13;;;7.53;;
2041;SDS011;1026;51.460;7.252;2022-08-19T13:45:47;9.90;;;8.87;;
2041;SDS011;1026;51.460;7.252;2022-08-19T13:48:13;9.07;;;8.30;;
2041;SDS011;1026;51.460;7.252;2022-08-19T13:50:40;9.00;;;8.10;;
2041;SDS011;1026;51.460;7.252;2022-08-19T13:53:09;9.47;;;7.50;;
2041;SDS011;1026;51.460;7.252;2022-08-19T13:55:37;8.03;;;7.33;;
2041;SDS011;1026;51.460;7.252;2022-08-19T13:58:04;8.43;;;7.13;;
2041;SDS011;1026;51.460;7.252;2022-08-19T14:00:31;7.00;;;6.30;;
2041;SDS011;1026;51.460;7.252;2022-08-19T14:03:00;7.60;;;7.00;;
2041;SDS011;1026;51.460;7.252;2022-08-19T14:05:27;7.70;;;7.00;;
2041;SDS011;1026;51.460;7.252;2022-08-19T14:07:54;6.97;;;6.47;;
2041;SDS011;1026;51.460;7.252;2022-08-19T14:10:20;8.53;;;7.47;;
2041;SDS011;1026;51.460;7.252;2022-08-19T14:12:48;8.30;;;7.60;;
2041;SDS011;1026;51.460;7.252;2022-08-19T14:15:14;8.30;;;7.63;;
2041;SDS011;1026;51.460;7.252;2022-08-19T14:17:41;8.93;;;8.23;;
2041;SDS011;1026;51.460;7.252;2022-08-19T14:20:09;7.77;;;7.07;;
2041;SDS011;1026;51.460;7.252;2022-08-19T14:22:38;7.20;;;6.60;;
2041;SDS011;1026;51.460;7.252;2022-08-19T14:25:05;8.37;;;7.70;;
2041;SDS011;1026;51.460;7.252;2022-08-19T14:27:34;8.70;;;7.90;;
2041;SDS011;1026;51.460;7.252;2022-08-19T14:30:02;6.90;;;6.40;;
2041;SDS011;1026;51.460;7.252;2022-08-19T14:32:29;7.50;;;6.90;;
2041;SDS011;1026;51.460;7.252;2022-08-19T14:34:55;7.80;;;7.10;;
2041;SDS011;1026;51.460;7.252;2022-08-19T14:37:20;8.03;;;7.33;;
2041;SDS011;1026;51.460;7.252;2022-08-19T14:39:47;6.63;;;6.03;;
2041;SDS011;1026;51.460;7.252;2022-08-19T14:42:13;7.30;;;6.70;;
2041;SDS011;1026;51.460;7.252;2022-08-19T14:44:40;8.23;;;7.47;;
2041;SDS011;1026;51.460;7.252;2022-08-19T14:47:06;7.00;;;6.40;;
2041;SDS011;1026;51.460;7.252;2022-08-19T14:49:32;7.13;;;6.53;;
2041;SDS011;1026;51.460;7.252;2022-08-19T14:51:58;8.80;;;7.90;;
2041;SDS011;1026;51.460;7.252;2022-08-19T14:54:24;7.13;;;6.53;;
2041;SDS011;1026;51.460;7.252;2022-08-19T14:56:49;7.93;;;7.07;;
2041;SDS011;1026;51.460;7.252;2022-08-19T14:59:15;7.17;;;6.47;;
2041;SDS011;1026;51.460;7.252;2022-08-19T15:01:41;7.07;;;6.50;;
2041;SDS011;1026;51.460;7.252;2022-08-19T15:04:08;9.43;;;8.00;;
2041;SDS011;1026;51.460;7.252;2022-08-19T15:06:33;7.50;;;6.80;;
2041;SDS011;1026;51.460;7.252;2022-08-19T15:08:59;7.30;;;6.70;;
2041;SDS011;1026;51.460;7.252;2022-08-19T15:11:26;8.20;;;7.60;;
2041;SDS011;1026;51.460;7.252;2022-08-19T15:13:53;8.03;;;7.40;;
2041;SDS011;1026;51.460;7.252;2022-08-19T15:16:20;7.00;;;6.40;;
2041;SDS011;1026;51.460;7.252;2022-08-19T15:18:49;8.57;;;7.87;;
2041;SDS011;1026;51.460;7.252;2022-08-19T15:21:16;7.40;;;6.80;;
2041;SDS011;1026;51.460;7.252;2022-08-19T15:23:43;8.23;;;7.53;;